METAR Data
IDs: Format: Raw Decoded Include TAF

Data at: 2057 UTC 02 Aug 2021

METAR for:KAEJ (Buena Vista/Central, CO, US)
Text:KAEJ 022035Z AUTO 09005KT 10SM SCT090 SCT110 21/07 A3045 RMK AO2 LTG DSNT N T02050074
Temperature: 20.5°C ( 69°F)
Dewpoint: 7.4°C ( 45°F) [RH = 43%]
Pressure (altimeter):30.45 inches Hg (1031.2 mb)
Winds:from the E (90 degrees) at 6 MPH (5 knots; 2.6 m/s)
Visibility:10 or more sm (16+ km)
Ceiling:at least 12,000 feet AGL
Clouds: scattered clouds at 9000 feet AGL, scattered clouds at 11000 feet AGL
QC Flag:automated observation with no human augmentation